sensor_id;sensor_type;location;lat;lon;timestamp;P1;durP1;ratioP1;P2;durP2;ratioP2
39728;SDS011;25402;42.004;23.088;2024-02-26T00:00:41;24.60;;;11.30;;
39728;SDS011;25402;42.004;23.088;2024-02-26T00:03:08;20.92;;;11.55;;
39728;SDS011;25402;42.004;23.088;2024-02-26T00:05:37;16.60;;;10.68;;
39728;SDS011;25402;42.004;23.088;2024-02-26T00:08:04;21.50;;;11.50;;
39728;SDS011;25402;42.004;23.088;2024-02-26T00:10:32;23.42;;;11.30;;
39728;SDS011;25402;42.004;23.088;2024-02-26T00:12:59;19.38;;;11.57;;
39728;SDS011;25402;42.004;23.088;2024-02-26T00:15:26;18.23;;;11.18;;
39728;SDS011;25402;42.004;23.088;2024-02-26T00:17:53;21.48;;;10.90;;
39728;SDS011;25402;42.004;23.088;2024-02-26T00:20:21;20.23;;;12.32;;
39728;SDS011;25402;42.004;23.088;2024-02-26T00:22:49;18.80;;;11.15;;
39728;SDS011;25402;42.004;23.088;2024-02-26T00:25:16;18.85;;;11.95;;
39728;SDS011;25402;42.004;23.088;2024-02-26T00:27:43;22.65;;;11.48;;
39728;SDS011;25402;42.004;23.088;2024-02-26T00:30:10;20.60;;;12.10;;
39728;SDS011;25402;42.004;23.088;2024-02-26T00:32:38;22.25;;;12.45;;
39728;SDS011;25402;42.004;23.088;2024-02-26T00:35:05;20.33;;;11.18;;
39728;SDS011;25402;42.004;23.088;2024-02-26T00:37:34;23.77;;;12.73;;
39728;SDS011;25402;42.004;23.088;2024-02-26T00:40:03;22.77;;;11.95;;
39728;SDS011;25402;42.004;23.088;2024-02-26T00:42:31;22.98;;;12.50;;
39728;SDS011;25402;42.004;23.088;2024-02-26T00:44:58;20.55;;;11.23;;
39728;SDS011;25402;42.004;23.088;2024-02-26T00:47:25;19.80;;;11.50;;
39728;SDS011;25402;42.004;23.088;2024-02-26T00:49:52;21.92;;;12.48;;
39728;SDS011;25402;42.004;23.088;2024-02-26T00:52:19;27.13;;;11.98;;
39728;SDS011;25402;42.004;23.088;2024-02-26T00:54:46;20.92;;;11.93;;
39728;SDS011;25402;42.004;23.088;2024-02-26T00:57:15;23.35;;;12.23;;
39728;SDS011;25402;42.004;23.088;2024-02-26T00:59:42;22.38;;;12.50;;
39728;SDS011;25402;42.004;23.088;2024-02-26T01:02:09;23.08;;;12.15;;
39728;SDS011;25402;42.004;23.088;2024-02-26T01:04:36;18.58;;;11.38;;
39728;SDS011;25402;42.004;23.088;2024-02-26T01:07:03;21.98;;;12.30;;
39728;SDS011;25402;42.004;23.088;2024-02-26T01:09:30;21.23;;;12.40;;
39728;SDS011;25402;42.004;23.088;2024-02-26T01:11:57;18.20;;;11.68;;
39728;SDS011;25402;42.004;23.088;2024-02-26T01:14:26;18.48;;;11.20;;
39728;SDS011;25402;42.004;23.088;2024-02-26T01:16:53;21.30;;;11.73;;
39728;SDS011;25402;42.004;23.088;2024-02-26T01:19:20;20.33;;;11.95;;
39728;SDS011;25402;42.004;23.088;2024-02-26T01:21:48;22.95;;;11.43;;
39728;SDS011;25402;42.004;23.088;2024-02-26T01:24:17;17.88;;;11.50;;
39728;SDS011;25402;42.004;23.088;2024-02-26T01:26:45;21.38;;;11.00;;
39728;SDS011;25402;42.004;23.088;2024-02-26T01:29:12;19.60;;;11.88;;
39728;SDS011;25402;42.004;23.088;2024-02-26T01:31:40;23.15;;;11.52;;
39728;SDS011;25402;42.004;23.088;2024-02-26T01:34:07;31.95;;;12.18;;
39728;SDS011;25402;42.004;23.088;2024-02-26T01:36:34;21.52;;;12.00;;
39728;SDS011;25402;42.004;23.088;2024-02-26T01:39:01;20.70;;;11.60;;
39728;SDS011;25402;42.004;23.088;2024-02-26T01:41:29;20.85;;;12.07;;
39728;SDS011;25402;42.004;23.088;2024-02-26T01:43:56;21.15;;;12.27;;
39728;SDS011;25402;42.004;23.088;2024-02-26T01:46:23;29.42;;;11.27;;
39728;SDS011;25402;42.004;23.088;2024-02-26T01:48:53;19.33;;;11.85;;
39728;SDS011;25402;42.004;23.088;2024-02-26T01:51:20;19.88;;;12.55;;
39728;SDS011;25402;42.004;23.088;2024-02-26T01:53:48;20.58;;;12.75;;
39728;SDS011;25402;42.004;23.088;2024-02-26T01:56:15;19.75;;;12.48;;
39728;SDS011;25402;42.004;23.088;2024-02-26T01:58:45;23.40;;;13.00;;
39728;SDS011;25402;42.004;23.088;2024-02-26T02:01:12;23.60;;;13.13;;
39728;SDS011;25402;42.004;23.088;2024-02-26T02:03:42;25.48;;;12.77;;
39728;SDS011;25402;42.004;23.088;2024-02-26T02:06:11;23.75;;;12.57;;
39728;SDS011;25402;42.004;23.088;2024-02-26T02:08:39;21.75;;;12.27;;
39728;SDS011;25402;42.004;23.088;2024-02-26T02:11:06;21.95;;;12.52;;
39728;SDS011;25402;42.004;23.088;2024-02-26T02:13:36;22.83;;;13.23;;
39728;SDS011;25402;42.004;23.088;2024-02-26T02:16:03;25.15;;;12.63;;
39728;SDS011;25402;42.004;23.088;2024-02-26T02:18:31;24.85;;;12.48;;
39728;SDS011;25402;42.004;23.088;2024-02-26T02:21:01;22.40;;;12.57;;
39728;SDS011;25402;42.004;23.088;2024-02-26T02:23:28;22.70;;;12.18;;
39728;SDS011;25402;42.004;23.088;2024-02-26T02:25:55;25.73;;;12.75;;
39728;SDS011;25402;42.004;23.088;2024-02-26T02:28:24;21.42;;;11.93;;
39728;SDS011;25402;42.004;23.088;2024-02-26T02:30:53;20.73;;;12.38;;
39728;SDS011;25402;42.004;23.088;2024-02-26T02:33:21;20.55;;;12.48;;
39728;SDS011;25402;42.004;23.088;2024-02-26T02:35:49;20.13;;;12.52;;
39728;SDS011;25402;42.004;23.088;2024-02-26T02:38:20;24.48;;;13.25;;
39728;SDS011;25402;42.004;23.088;2024-02-26T02:40:49;31.30;;;13.48;;
39728;SDS011;25402;42.004;23.088;2024-02-26T02:43:16;25.55;;;13.40;;
39728;SDS011;25402;42.004;23.088;2024-02-26T02:45:43;24.60;;;14.15;;
39728;SDS011;25402;42.004;23.088;2024-02-26T02:48:10;25.45;;;14.02;;
39728;SDS011;25402;42.004;23.088;2024-02-26T02:50:37;26.27;;;13.30;;
39728;SDS011;25402;42.004;23.088;2024-02-26T02:53:04;22.55;;;12.52;;
39728;SDS011;25402;42.004;23.088;2024-02-26T02:55:33;23.05;;;12.98;;
39728;SDS011;25402;42.004;23.088;2024-02-26T02:58:00;25.15;;;13.02;;
39728;SDS011;25402;42.004;23.088;2024-02-26T03:00:27;20.38;;;12.70;;
39728;SDS011;25402;42.004;23.088;2024-02-26T03:02:54;29.08;;;13.90;;
39728;SDS011;25402;42.004;23.088;2024-02-26T03:05:21;20.65;;;12.82;;
39728;SDS011;25402;42.004;23.088;2024-02-26T03:07:48;21.73;;;12.90;;
39728;SDS011;25402;42.004;23.088;2024-02-26T03:10:15;22.98;;;13.52;;
39728;SDS011;25402;42.004;23.088;2024-02-26T03:12:44;26.25;;;13.80;;
39728;SDS011;25402;42.004;23.088;2024-02-26T03:15:12;22.13;;;13.32;;
39728;SDS011;25402;42.004;23.088;2024-02-26T03:17:39;28.85;;;14.02;;
39728;SDS011;25402;42.004;23.088;2024-02-26T03:20:07;26.80;;;13.18;;
39728;SDS011;25402;42.004;23.088;2024-02-26T03:22:35;22.50;;;13.00;;
39728;SDS011;25402;42.004;23.088;2024-02-26T03:25:02;30.88;;;15.80;;
39728;SDS011;25402;42.004;23.088;2024-02-26T03:27:29;28.90;;;14.75;;
39728;SDS011;25402;42.004;23.088;2024-02-26T03:29:58;26.80;;;13.73;;
39728;SDS011;25402;42.004;23.088;2024-02-26T03:32:25;24.08;;;13.57;;
39728;SDS011;25402;42.004;23.088;2024-02-26T03:34:52;29.77;;;14.30;;
39728;SDS011;25402;42.004;23.088;2024-02-26T03:37:21;24.67;;;15.23;;
39728;SDS011;25402;42.004;23.088;2024-02-26T03:39:48;29.02;;;13.93;;
39728;SDS011;25402;42.004;23.088;2024-02-26T03:42:14;39.60;;;15.70;;
39728;SDS011;25402;42.004;23.088;2024-02-26T03:44:41;28.58;;;15.95;;
39728;SDS011;25402;42.004;23.088;2024-02-26T03:47:10;36.70;;;18.58;;
39728;SDS011;25402;42.004;23.088;2024-02-26T03:49:37;23.83;;;13.82;;
39728;SDS011;25402;42.004;23.088;2024-02-26T03:52:05;32.78;;;13.93;;
39728;SDS011;25402;42.004;23.088;2024-02-26T03:54:32;28.23;;;16.38;;
39728;SDS011;25402;42.004;23.088;2024-02-26T03:56:59;32.28;;;16.65;;
39728;SDS011;25402;42.004;23.088;2024-02-26T03:59:26;30.80;;;15.90;;
39728;SDS011;25402;42.004;23.088;2024-02-26T04:01:53;27.92;;;13.45;;
39728;SDS011;25402;42.004;23.088;2024-02-26T04:04:21;33.03;;;14.35;;
39728;SDS011;25402;42.004;23.088;2024-02-26T04:06:48;25.52;;;13.98;;
39728;SDS011;25402;42.004;23.088;2024-02-26T04:09:15;28.95;;;12.88;;
39728;SDS011;25402;42.004;23.088;2024-02-26T04:11:42;29.08;;;13.75;;
39728;SDS011;25402;42.004;23.088;2024-02-26T04:14:09;25.90;;;13.32;;
39728;SDS011;25402;42.004;23.088;2024-02-26T04:16:37;24.60;;;13.65;;
39728;SDS011;25402;42.004;23.088;2024-02-26T04:19:04;25.20;;;14.25;;
39728;SDS011;25402;42.004;23.088;2024-02-26T04:21:33;22.50;;;13.40;;
39728;SDS011;25402;42.004;23.088;2024-02-26T04:24:00;27.33;;;14.35;;
39728;SDS011;25402;42.004;23.088;2024-02-26T04:26:27;31.10;;;13.85;;
39728;SDS011;25402;42.004;23.088;2024-02-26T04:28:55;25.60;;;13.68;;
39728;SDS011;25402;42.004;23.088;2024-02-26T04:31:22;65.35;;;10.80;;
39728;SDS011;25402;42.004;23.088;2024-02-26T04:33:49;60.83;;;10.35;;
39728;SDS011;25402;42.004;23.088;2024-02-26T04:36:16;58.58;;;11.15;;
39728;SDS011;25402;42.004;23.088;2024-02-26T04:38:45;38.65;;;10.52;;
39728;SDS011;25402;42.004;23.088;2024-02-26T04:41:12;57.55;;;11.43;;
39728;SDS011;25402;42.004;23.088;2024-02-26T04:43:39;59.50;;;10.55;;
39728;SDS011;25402;42.004;23.088;2024-02-26T04:46:07;37.10;;;10.15;;
39728;SDS011;25402;42.004;23.088;2024-02-26T04:48:34;31.25;;;11.40;;
39728;SDS011;25402;42.004;23.088;2024-02-26T04:51:02;34.78;;;9.48;;
39728;SDS011;25402;42.004;23.088;2024-02-26T04:53:29;21.75;;;12.68;;
39728;SDS011;25402;42.004;23.088;2024-02-26T04:55:58;26.10;;;10.40;;
39728;SDS011;25402;42.004;23.088;2024-02-26T04:58:25;30.13;;;13.10;;
39728;SDS011;25402;42.004;23.088;2024-02-26T05:00:52;32.60;;;10.75;;
39728;SDS011;25402;42.004;23.088;2024-02-26T05:03:19;27.42;;;10.88;;
39728;SDS011;25402;42.004;23.088;2024-02-26T05:05:46;19.05;;;11.75;;
39728;SDS011;25402;42.004;23.088;2024-02-26T05:08:13;22.42;;;9.52;;
39728;SDS011;25402;42.004;23.088;2024-02-26T05:10:40;33.42;;;15.35;;
39728;SDS011;25402;42.004;23.088;2024-02-26T05:13:09;25.45;;;11.40;;
39728;SDS011;25402;42.004;23.088;2024-02-26T05:15:36;28.77;;;14.52;;
39728;SDS011;25402;42.004;23.088;2024-02-26T05:18:04;23.05;;;10.38;;
39728;SDS011;25402;42.004;23.088;2024-02-26T05:20:35;27.77;;;11.25;;
39728;SDS011;25402;42.004;23.088;2024-02-26T05:23:03;19.73;;;12.20;;
39728;SDS011;25402;42.004;23.088;2024-02-26T05:25:30;20.08;;;11.65;;
39728;SDS011;25402;42.004;23.088;2024-02-26T05:27:57;23.33;;;12.10;;
39728;SDS011;25402;42.004;23.088;2024-02-26T05:30:25;19.50;;;11.10;;
39728;SDS011;25402;42.004;23.088;2024-02-26T05:32:53;19.90;;;10.95;;
39728;SDS011;25402;42.004;23.088;2024-02-26T05:35:20;26.73;;;12.27;;
39728;SDS011;25402;42.004;23.088;2024-02-26T05:37:47;22.40;;;10.77;;
39728;SDS011;25402;42.004;23.088;2024-02-26T05:40:14;18.95;;;11.02;;
39728;SDS011;25402;42.004;23.088;2024-02-26T05:42:41;17.70;;;10.48;;
39728;SDS011;25402;42.004;23.088;2024-02-26T05:45:10;23.08;;;10.43;;
39728;SDS011;25402;42.004;23.088;2024-02-26T05:47:38;28.05;;;10.98;;
39728;SDS011;25402;42.004;23.088;2024-02-26T05:50:08;18.63;;;10.18;;
39728;SDS011;25402;42.004;23.088;2024-02-26T05:52:36;24.80;;;10.57;;
39728;SDS011;25402;42.004;23.088;2024-02-26T05:55:03;20.60;;;12.65;;
39728;SDS011;25402;42.004;23.088;2024-02-26T05:57:31;31.00;;;18.33;;
39728;SDS011;25402;42.004;23.088;2024-02-26T05:59:58;29.38;;;14.43;;
39728;SDS011;25402;42.004;23.088;2024-02-26T06:02:29;21.23;;;10.65;;
39728;SDS011;25402;42.004;23.088;2024-02-26T06:04:57;20.30;;;11.80;;
39728;SDS011;25402;42.004;23.088;2024-02-26T06:07:24;23.88;;;11.40;;
39728;SDS011;25402;42.004;23.088;2024-02-26T06:09:54;22.85;;;12.32;;
39728;SDS011;25402;42.004;23.088;2024-02-26T06:12:22;25.77;;;13.88;;
39728;SDS011;25402;42.004;23.088;2024-02-26T06:14:49;30.38;;;16.15;;
39728;SDS011;25402;42.004;23.088;2024-02-26T06:17:17;25.95;;;15.48;;
39728;SDS011;25402;42.004;23.088;2024-02-26T06:19:44;21.67;;;13.98;;
39728;SDS011;25402;42.004;23.088;2024-02-26T06:22:15;25.98;;;15.00;;
39728;SDS011;25402;42.004;23.088;2024-02-26T06:24:42;25.38;;;14.25;;
39728;SDS011;25402;42.004;23.088;2024-02-26T06:27:09;30.08;;;15.52;;
39728;SDS011;25402;42.004;23.088;2024-02-26T06:29:37;27.85;;;15.35;;
39728;SDS011;25402;42.004;23.088;2024-02-26T06:32:05;30.50;;;15.23;;
39728;SDS011;25402;42.004;23.088;2024-02-26T06:34:32;29.77;;;17.25;;
39728;SDS011;25402;42.004;23.088;2024-02-26T06:36:59;31.92;;;18.40;;
39728;SDS011;25402;42.004;23.088;2024-02-26T06:39:28;34.13;;;18.65;;
39728;SDS011;25402;42.004;23.088;2024-02-26T06:41:55;30.52;;;17.45;;
39728;SDS011;25402;42.004;23.088;2024-02-26T06:44:25;34.42;;;19.10;;
39728;SDS011;25402;42.004;23.088;2024-02-26T06:46:56;34.63;;;18.80;;
39728;SDS011;25402;42.004;23.088;2024-02-26T06:49:24;93.43;;;21.80;;
39728;SDS011;25402;42.004;23.088;2024-02-26T06:51:51;177.90;;;22.90;;
39728;SDS011;25402;42.004;23.088;2024-02-26T06:54:18;57.20;;;18.83;;
39728;SDS011;25402;42.004;23.088;2024-02-26T06:56:47;39.45;;;18.30;;
39728;SDS011;25402;42.004;23.088;2024-02-26T06:59:14;33.95;;;17.20;;
39728;SDS011;25402;42.004;23.088;2024-02-26T07:01:41;39.95;;;18.60;;
39728;SDS011;25402;42.004;23.088;2024-02-26T07:04:09;29.38;;;18.40;;
39728;SDS011;25402;42.004;23.088;2024-02-26T07:06:36;33.03;;;16.40;;
39728;SDS011;25402;42.004;23.088;2024-02-26T07:09:04;28.95;;;15.85;;
39728;SDS011;25402;42.004;23.088;2024-02-26T07:11:31;31.48;;;16.52;;
39728;SDS011;25402;42.004;23.088;2024-02-26T07:13:59;33.45;;;16.27;;
39728;SDS011;25402;42.004;23.088;2024-02-26T07:16:27;31.15;;;15.88;;
39728;SDS011;25402;42.004;23.088;2024-02-26T07:18:54;28.50;;;14.00;;
39728;SDS011;25402;42.004;23.088;2024-02-26T07:21:21;28.95;;;13.75;;
39728;SDS011;25402;42.004;23.088;2024-02-26T07:23:48;28.48;;;14.45;;
39728;SDS011;25402;42.004;23.088;2024-02-26T07:26:15;29.10;;;14.13;;
39728;SDS011;25402;42.004;23.088;2024-02-26T07:28:43;24.80;;;14.50;;
39728;SDS011;25402;42.004;23.088;2024-02-26T07:31:12;31.00;;;16.27;;
39728;SDS011;25402;42.004;23.088;2024-02-26T07:33:39;35.15;;;17.10;;
39728;SDS011;25402;42.004;23.088;2024-02-26T07:36:06;29.23;;;16.55;;
39728;SDS011;25402;42.004;23.088;2024-02-26T07:38:33;33.40;;;16.50;;
39728;SDS011;25402;42.004;23.088;2024-02-26T07:41:01;29.13;;;15.90;;
39728;SDS011;25402;42.004;23.088;2024-02-26T07:43:28;28.58;;;15.70;;
39728;SDS011;25402;42.004;23.088;2024-02-26T07:45:55;27.15;;;15.02;;
39728;SDS011;25402;42.004;23.088;2024-02-26T07:48:25;29.70;;;15.02;;
39728;SDS011;25402;42.004;23.088;2024-02-26T07:50:52;27.08;;;15.18;;
39728;SDS011;25402;42.004;23.088;2024-02-26T07:53:19;30.52;;;15.98;;
39728;SDS011;25402;42.004;23.088;2024-02-26T07:55:46;34.95;;;16.15;;
39728;SDS011;25402;42.004;23.088;2024-02-26T07:58:13;33.08;;;16.23;;
39728;SDS011;25402;42.004;23.088;2024-02-26T08:00:40;36.90;;;15.82;;
39728;SDS011;25402;42.004;23.088;2024-02-26T08:03:08;30.10;;;16.45;;
39728;SDS011;25402;42.004;23.088;2024-02-26T08:05:37;35.80;;;16.60;;
39728;SDS011;25402;42.004;23.088;2024-02-26T08:08:06;28.08;;;16.27;;
39728;SDS011;25402;42.004;23.088;2024-02-26T08:10:33;42.75;;;25.95;;
39728;SDS011;25402;42.004;23.088;2024-02-26T08:13:00;39.65;;;21.50;;
39728;SDS011;25402;42.004;23.088;2024-02-26T08:15:31;31.52;;;15.40;;
39728;SDS011;25402;42.004;23.088;2024-02-26T08:17:59;24.10;;;13.63;;
39728;SDS011;25402;42.004;23.088;2024-02-26T08:20:27;27.95;;;14.98;;
39728;SDS011;25402;42.004;23.088;2024-02-26T08:22:56;23.35;;;12.70;;
39728;SDS011;25402;42.004;23.088;2024-02-26T08:25:24;26.40;;;14.50;;
39728;SDS011;25402;42.004;23.088;2024-02-26T08:27:51;28.10;;;13.40;;
39728;SDS011;25402;42.004;23.088;2024-02-26T08:30:19;24.98;;;13.48;;
39728;SDS011;25402;42.004;23.088;2024-02-26T08:32:47;29.75;;;13.93;;
39728;SDS011;25402;42.004;23.088;2024-02-26T08:35:15;28.02;;;14.65;;
39728;SDS011;25402;42.004;23.088;2024-02-26T08:37:44;27.17;;;14.90;;
39728;SDS011;25402;42.004;23.088;2024-02-26T08:40:13;23.60;;;14.40;;
39728;SDS011;25402;42.004;23.088;2024-02-26T08:42:40;30.38;;;14.75;;
39728;SDS011;25402;42.004;23.088;2024-02-26T08:45:08;26.75;;;12.10;;
39728;SDS011;25402;42.004;23.088;2024-02-26T08:47:36;31.40;;;13.52;;
39728;SDS011;25402;42.004;23.088;2024-02-26T08:50:03;26.20;;;14.10;;
39728;SDS011;25402;42.004;23.088;2024-02-26T08:52:31;27.52;;;13.93;;
39728;SDS011;25402;42.004;23.088;2024-02-26T08:54:58;22.30;;;11.73;;
39728;SDS011;25402;42.004;23.088;2024-02-26T08:57:27;26.35;;;14.43;;
39728;SDS011;25402;42.004;23.088;2024-02-26T08:59:54;46.20;;;19.75;;
39728;SDS011;25402;42.004;23.088;2024-02-26T09:02:21;38.85;;;18.48;;
39728;SDS011;25402;42.004;23.088;2024-02-26T09:04:48;35.67;;;16.27;;
39728;SDS011;25402;42.004;23.088;2024-02-26T09:07:18;24.05;;;14.98;;
39728;SDS011;25402;42.004;23.088;2024-02-26T09:09:45;21.40;;;12.10;;
39728;SDS011;25402;42.004;23.088;2024-02-26T09:12:11;22.90;;;13.10;;
39728;SDS011;25402;42.004;23.088;2024-02-26T09:14:42;24.27;;;12.70;;
39728;SDS011;25402;42.004;23.088;2024-02-26T09:17:09;35.55;;;15.38;;
39728;SDS011;25402;42.004;23.088;2024-02-26T09:19:36;27.80;;;15.75;;
39728;SDS011;25402;42.004;23.088;2024-02-26T09:22:03;37.33;;;15.85;;
39728;SDS011;25402;42.004;23.088;2024-02-26T09:24:30;35.95;;;16.38;;
39728;SDS011;25402;42.004;23.088;2024-02-26T09:26:57;31.00;;;16.13;;
39728;SDS011;25402;42.004;23.088;2024-02-26T09:29:25;44.53;;;17.15;;
39728;SDS011;25402;42.004;23.088;2024-02-26T09:31:55;34.08;;;16.25;;
39728;SDS011;25402;42.004;23.088;2024-02-26T09:34:22;35.33;;;16.85;;
39728;SDS011;25402;42.004;23.088;2024-02-26T09:36:49;40.88;;;16.33;;
39728;SDS011;25402;42.004;23.088;2024-02-26T09:39:16;44.45;;;16.45;;
39728;SDS011;25402;42.004;23.088;2024-02-26T09:41:46;42.15;;;17.75;;
39728;SDS011;25402;42.004;23.088;2024-02-26T09:44:14;31.73;;;16.85;;
39728;SDS011;25402;42.004;23.088;2024-02-26T09:46:45;41.15;;;16.67;;
39728;SDS011;25402;42.004;23.088;2024-02-26T09:49:15;38.22;;;16.63;;
39728;SDS011;25402;42.004;23.088;2024-02-26T09:51:42;35.85;;;17.00;;
39728;SDS011;25402;42.004;23.088;2024-02-26T09:54:10;37.10;;;16.23;;
39728;SDS011;25402;42.004;23.088;2024-02-26T09:56:40;36.25;;;16.02;;
39728;SDS011;25402;42.004;23.088;2024-02-26T09:59:10;29.23;;;15.80;;
39728;SDS011;25402;42.004;23.088;2024-02-26T10:01:41;35.00;;;16.05;;
39728;SDS011;25402;42.004;23.088;2024-02-26T10:04:09;32.03;;;16.80;;
39728;SDS011;25402;42.004;23.088;2024-02-26T10:06:39;46.08;;;25.23;;
39728;SDS011;25402;42.004;23.088;2024-02-26T10:09:06;46.10;;;24.08;;
39728;SDS011;25402;42.004;23.088;2024-02-26T10:11:37;45.10;;;20.45;;
39728;SDS011;25402;42.004;23.088;2024-02-26T10:14:04;35.33;;;17.73;;
39728;SDS011;25402;42.004;23.088;2024-02-26T10:16:31;25.55;;;14.25;;
39728;SDS011;25402;42.004;23.088;2024-02-26T10:19:00;29.52;;;15.38;;
39728;SDS011;25402;42.004;23.088;2024-02-26T10:21:27;25.20;;;14.95;;
39728;SDS011;25402;42.004;23.088;2024-02-26T10:23:56;23.13;;;13.15;;
39728;SDS011;25402;42.004;23.088;2024-02-26T10:26:23;29.80;;;15.13;;
39728;SDS011;25402;42.004;23.088;2024-02-26T10:28:50;48.80;;;20.67;;
39728;SDS011;25402;42.004;23.088;2024-02-26T10:31:17;26.17;;;15.27;;
39728;SDS011;25402;42.004;23.088;2024-02-26T10:33:46;36.15;;;17.50;;
39728;SDS011;25402;42.004;23.088;2024-02-26T10:36:13;46.58;;;19.20;;
39728;SDS011;25402;42.004;23.088;2024-02-26T10:38:41;22.85;;;12.80;;
39728;SDS011;25402;42.004;23.088;2024-02-26T10:41:12;23.13;;;13.07;;
39728;SDS011;25402;42.004;23.088;2024-02-26T10:43:40;28.52;;;12.80;;
39728;SDS011;25402;42.004;23.088;2024-02-26T10:46:08;28.17;;;13.93;;
39728;SDS011;25402;42.004;23.088;2024-02-26T10:48:36;19.73;;;10.27;;
39728;SDS011;25402;42.004;23.088;2024-02-26T10:51:03;20.73;;;10.38;;
39728;SDS011;25402;42.004;23.088;2024-02-26T10:53:31;22.15;;;11.82;;
39728;SDS011;25402;42.004;23.088;2024-02-26T10:56:02;14.88;;;10.02;;
39728;SDS011;25402;42.004;23.088;2024-02-26T10:58:34;14.73;;;9.27;;
39728;SDS011;25402;42.004;23.088;2024-02-26T11:01:02;19.80;;;10.75;;
39728;SDS011;25402;42.004;23.088;2024-02-26T11:03:31;25.00;;;11.60;;
39728;SDS011;25402;42.004;23.088;2024-02-26T11:06:00;19.05;;;9.45;;
39728;SDS011;25402;42.004;23.088;2024-02-26T11:08:28;22.48;;;10.05;;
39728;SDS011;25402;42.004;23.088;2024-02-26T11:10:58;19.70;;;10.52;;
39728;SDS011;25402;42.004;23.088;2024-02-26T11:13:26;16.85;;;8.52;;
39728;SDS011;25402;42.004;23.088;2024-02-26T11:15:58;12.38;;;6.03;;
39728;SDS011;25402;42.004;23.088;2024-02-26T11:18:26;12.18;;;6.88;;
39728;SDS011;25402;42.004;23.088;2024-02-26T11:20:54;15.23;;;6.30;;
39728;SDS011;25402;42.004;23.088;2024-02-26T11:23:23;13.30;;;6.50;;
39728;SDS011;25402;42.004;23.088;2024-02-26T11:25:50;12.68;;;6.85;;
39728;SDS011;25402;42.004;23.088;2024-02-26T11:28:18;11.65;;;5.80;;
39728;SDS011;25402;42.004;23.088;2024-02-26T11:30:48;15.32;;;6.30;;
39728;SDS011;25402;42.004;23.088;2024-02-26T11:33:19;11.82;;;5.97;;
39728;SDS011;25402;42.004;23.088;2024-02-26T11:35:47;33.42;;;6.47;;
39728;SDS011;25402;42.004;23.088;2024-02-26T11:38:17;16.67;;;5.97;;
39728;SDS011;25402;42.004;23.088;2024-02-26T11:40:47;11.60;;;5.55;;
39728;SDS011;25402;42.004;23.088;2024-02-26T11:43:14;30.38;;;6.05;;
39728;SDS011;25402;42.004;23.088;2024-02-26T11:45:48;15.73;;;5.78;;
39728;SDS011;25402;42.004;23.088;2024-02-26T11:48:21;16.45;;;6.63;;
39728;SDS011;25402;42.004;23.088;2024-02-26T11:50:50;17.85;;;5.55;;
39728;SDS011;25402;42.004;23.088;2024-02-26T11:53:24;14.48;;;5.22;;
39728;SDS011;25402;42.004;23.088;2024-02-26T11:58:39;12.38;;;5.63;;
39728;SDS011;25402;42.004;23.088;2024-02-26T12:04:16;19.63;;;4.90;;
39728;SDS011;25402;42.004;23.088;2024-02-26T12:06:45;36.83;;;5.25;;
39728;SDS011;25402;42.004;23.088;2024-02-26T12:12:03;14.45;;;4.68;;
39728;SDS011;25402;42.004;23.088;2024-02-26T12:14:32;14.35;;;5.03;;
39728;SDS011;25402;42.004;23.088;2024-02-26T12:17:01;12.77;;;5.00;;
39728;SDS011;25402;42.004;23.088;2024-02-26T12:19:33;11.27;;;4.75;;
39728;SDS011;25402;42.004;23.088;2024-02-26T12:22:02;19.00;;;6.40;;
39728;SDS011;25402;42.004;23.088;2024-02-26T12:24:30;9.35;;;4.57;;
39728;SDS011;25402;42.004;23.088;2024-02-26T12:26:57;12.55;;;4.65;;
39728;SDS011;25402;42.004;23.088;2024-02-26T12:29:24;8.82;;;5.25;;
39728;SDS011;25402;42.004;23.088;2024-02-26T12:31:51;11.82;;;4.82;;
39728;SDS011;25402;42.004;23.088;2024-02-26T12:34:18;11.73;;;5.43;;
39728;SDS011;25402;42.004;23.088;2024-02-26T12:36:47;18.50;;;5.05;;
39728;SDS011;25402;42.004;23.088;2024-02-26T12:39:14;11.88;;;4.82;;
39728;SDS011;25402;42.004;23.088;2024-02-26T12:41:41;12.57;;;4.82;;
39728;SDS011;25402;42.004;23.088;2024-02-26T12:44:14;10.27;;;4.60;;
39728;SDS011;25402;42.004;23.088;2024-02-26T12:46:41;12.48;;;5.15;;
39728;SDS011;25402;42.004;23.088;2024-02-26T12:49:08;10.60;;;5.10;;
39728;SDS011;25402;42.004;23.088;2024-02-26T12:51:41;10.90;;;5.13;;
39728;SDS011;25402;42.004;23.088;2024-02-26T12:54:11;11.32;;;4.47;;
39728;SDS011;25402;42.004;23.088;2024-02-26T12:56:39;20.02;;;6.07;;
39728;SDS011;25402;42.004;23.088;2024-02-26T12:59:07;13.32;;;5.35;;
39728;SDS011;25402;42.004;23.088;2024-02-26T13:01:35;15.30;;;6.40;;
39728;SDS011;25402;42.004;23.088;2024-02-26T13:04:02;12.32;;;7.43;;
39728;SDS011;25402;42.004;23.088;2024-02-26T13:06:31;20.13;;;11.70;;
39728;SDS011;25402;42.004;23.088;2024-02-26T13:08:59;25.45;;;12.70;;
39728;SDS011;25402;42.004;23.088;2024-02-26T13:11:28;27.52;;;13.43;;
39728;SDS011;25402;42.004;23.088;2024-02-26T13:13:56;15.15;;;8.50;;
39728;SDS011;25402;42.004;23.088;2024-02-26T13:16:24;23.90;;;8.43;;
39728;SDS011;25402;42.004;23.088;2024-02-26T13:18:53;18.05;;;6.32;;
39728;SDS011;25402;42.004;23.088;2024-02-26T13:21:20;12.65;;;5.47;;
39728;SDS011;25402;42.004;23.088;2024-02-26T13:23:48;9.90;;;4.93;;
39728;SDS011;25402;42.004;23.088;2024-02-26T13:26:16;12.63;;;5.63;;
39728;SDS011;25402;42.004;23.088;2024-02-26T13:28:44;16.67;;;6.30;;
39728;SDS011;25402;42.004;23.088;2024-02-26T13:31:11;12.48;;;6.68;;
39728;SDS011;25402;42.004;23.088;2024-02-26T13:33:39;21.15;;;6.93;;
39728;SDS011;25402;42.004;23.088;2024-02-26T13:36:06;14.98;;;5.93;;
39728;SDS011;25402;42.004;23.088;2024-02-26T13:38:37;12.25;;;5.88;;
39728;SDS011;25402;42.004;23.088;2024-02-26T13:41:04;15.18;;;5.78;;
39728;SDS011;25402;42.004;23.088;2024-02-26T13:43:31;11.15;;;5.53;;
39728;SDS011;25402;42.004;23.088;2024-02-26T13:45:59;13.80;;;4.95;;
39728;SDS011;25402;42.004;23.088;2024-02-26T13:48:26;11.75;;;5.13;;
39728;SDS011;25402;42.004;23.088;2024-02-26T13:50:53;9.15;;;5.07;;
39728;SDS011;25402;42.004;23.088;2024-02-26T13:53:20;11.63;;;4.93;;
39728;SDS011;25402;42.004;23.088;2024-02-26T13:55:49;12.52;;;5.28;;
39728;SDS011;25402;42.004;23.088;2024-02-26T13:58:16;13.50;;;4.68;;
39728;SDS011;25402;42.004;23.088;2024-02-26T14:00:48;12.70;;;5.53;;
39728;SDS011;25402;42.004;23.088;2024-02-26T14:03:16;15.32;;;5.57;;
39728;SDS011;25402;42.004;23.088;2024-02-26T14:05:44;14.80;;;5.57;;
39728;SDS011;25402;42.004;23.088;2024-02-26T14:08:11;12.93;;;5.22;;
39728;SDS011;25402;42.004;23.088;2024-02-26T14:10:39;14.70;;;5.68;;
39728;SDS011;25402;42.004;23.088;2024-02-26T14:13:06;14.48;;;6.00;;
39728;SDS011;25402;42.004;23.088;2024-02-26T14:15:33;10.85;;;5.40;;
39728;SDS011;25402;42.004;23.088;2024-02-26T14:18:00;17.10;;;5.85;;
39728;SDS011;25402;42.004;23.088;2024-02-26T14:20:30;14.30;;;5.15;;
39728;SDS011;25402;42.004;23.088;2024-02-26T14:22:57;9.82;;;5.53;;